Sebastopol, California
Current Conditions -  °F | °C
As of 11:53 AM on Wednesday 26 Nov 2014 (Local Time) from KSTS Reporting Station
Scattered Clouds Scattered Clouds  
Wind Chill: 61°   Ceiling: Unl
Heat Index: 61°   Visibility: 10mi
Dew Point: 47°   Wind: 0mph
Humidity: 60%   Direction: NA
Pressure: 30.26"   Gusts: NA
Location:  38.4°N, 122.82°W
Report Text: KSTS 261953Z 00000KT 10SM SCT200 16/08 A3026 RMK AO2 SLP240 T01610083
Loading
Personal Weather Stations






























Interactive Weather Map New forecast layout! Learn more

10-Day Weather Forecast

Advertisements
Track Severe Weather on mobile